Time;durP1;ratioP1;P1;durP2;ratioP2;P2;SDS_P1;SDS_P2;PMS_P1;PMS_P2;Temp;Humidity;BMP_temperature;BMP_pressure;BME280_temperature;BME280_humidity;BME280_pressure;Samples;Min_cycle;Max_cycle;Signal;HPM_P1;HPM_P2
2022/11/28 04:58:15;;;;;;;25.80;10.57;;;;;;;3.78;100.00;101195.34;5658856;27;20015;-82
2022/11/28 05:01:26;;;;;;;27.33;9.85;;;;;;;3.81;100.00;101184.44;5325428;33;34294;-84
2022/11/28 05:04:29;;;;;;;22.98;9.75;;;;;;;3.80;100.00;101196.09;5325332;33;33415;-84
2022/11/28 05:07:31;;;;;;;24.98;11.38;;;;;;;3.71;100.00;101187.91;5312477;33;33138;-83
2022/11/28 05:10:40;;;;;;;27.02;11.35;;;;;;;3.54;100.00;101191.81;5325246;33;33391;-87
2022/11/28 05:13:43;;;;;;;25.90;10.52;;;;;;;3.54;100.00;101195.34;5325131;33;34000;-89
2022/11/28 05:16:46;;;;;;;27.83;11.23;;;;;;;3.51;100.00;101195.56;5325350;33;33714;-90
2022/11/28 05:19:49;;;;;;;26.50;10.27;;;;;;;3.54;100.00;101191.81;5325325;33;33605;-86
2022/11/28 05:22:52;;;;;;;23.20;10.45;;;;;;;3.56;100.00;101197.88;5326958;33;33567;-83
2022/11/28 05:25:55;;;;;;;33.08;12.45;;;;;;;3.61;100.00;101198.41;5325734;33;33634;-83
2022/11/28 05:28:57;;;;;;;31.15;12.52;;;;;;;3.51;100.00;101205.34;5329298;33;34185;-83
2022/11/28 05:32:00;;;;;;;28.52;11.68;;;;;;;3.58;100.00;101195.97;5313260;33;32051;-83
2022/11/28 05:35:04;;;;;;;37.35;12.75;;;;;;;3.49;100.00;101197.47;5327084;33;34157;-84
2022/11/28 05:38:06;;;;;;;38.38;14.32;;;;;;;3.54;100.00;101202.44;5325143;33;33941;-84
2022/11/28 05:41:19;;;;;;;34.47;13.55;;;;;;;3.58;100.00;101203.94;5325104;33;34077;-84
2022/11/28 05:44:21;;;;;;;33.47;13.50;;;;;;;3.70;100.00;101213.69;5325574;33;33442;-83
2022/11/28 05:47:30;;;;;;;37.78;15.20;;;;;;;3.66;100.00;101222.00;5325453;33;33213;-84
2022/11/28 05:50:40;;;;;;;34.83;13.57;;;;;;;3.61;100.00;101209.87;5325439;33;33495;-84
2022/11/28 05:53:43;;;;;;;36.42;15.32;;;;;;;3.70;100.00;101223.50;5325346;33;33544;-84
2022/11/28 05:56:46;;;;;;;37.22;14.63;;;;;;;3.68;100.00;101225.41;5325142;33;33901;-83
2022/11/28 05:59:49;;;;;;;36.65;13.50;;;;;;;3.68;100.00;101230.75;5325858;33;33206;-83
2022/11/28 06:02:52;;;;;;;38.42;14.68;;;;;;;3.64;100.00;101228.31;5325762;33;33482;-83
2022/11/28 06:06:01;;;;;;;34.67;13.95;;;;;;;3.64;100.00;101222.12;5330195;33;34126;-84
2022/11/28 06:09:04;;;;;;;40.35;14.93;;;;;;;3.64;100.00;101225.62;5340983;33;34558;-84
2022/11/28 06:12:08;;;;;;;36.30;14.23;;;;;;;3.63;100.00;101231.09;5340344;33;35138;-84
2022/11/28 06:15:10;;;;;;;36.42;14.27;;;;;;;3.54;100.00;101227.28;5322924;33;33350;-84
2022/11/28 06:18:13;;;;;;;42.58;16.95;;;;;;;3.56;100.00;101222.69;5311872;33;32554;-84
2022/11/28 06:21:16;;;;;;;36.50;15.07;;;;;;;3.55;100.00;101228.12;5326687;33;33638;-84
2022/11/28 06:24:18;;;;;;;36.00;14.95;;;;;;;3.67;100.00;101213.91;5327557;33;33617;-84
2022/11/28 06:27:21;;;;;;;35.92;14.75;;;;;;;3.61;100.00;101220.53;5327981;33;33529;-84
2022/11/28 06:30:24;;;;;;;35.28;15.40;;;;;;;3.58;100.00;101225.25;5332434;33;34517;-84
2022/11/28 06:33:27;;;;;;;37.88;16.15;;;;;;;3.57;100.00;101219.06;5329725;33;34548;-86
2022/11/28 06:36:30;;;;;;;33.83;14.13;;;;;;;3.66;100.00;101222.00;5326076;33;33709;-83
2022/11/28 06:39:32;;;;;;;35.65;14.73;;;;;;;3.62;100.00;101224.88;5312436;33;33093;-83
2022/11/28 06:42:36;;;;;;;41.25;15.82;;;;;;;3.60;100.00;101223.34;5326189;33;33649;-83
2022/11/28 06:45:38;;;;;;;40.90;16.15;;;;;;;3.62;100.00;101232.03;5327884;33;34745;-83
2022/11/28 06:48:41;;;;;;;35.75;15.02;;;;;;;3.54;100.00;101237.06;5324904;33;33400;-83
2022/11/28 06:51:44;;;;;;;36.58;14.80;;;;;;;3.52;100.00;101245.19;5325009;33;33906;-83
2022/11/28 06:54:47;;;;;;;35.85;14.82;;;;;;;3.67;100.00;101243.22;5310791;33;32839;-83
2022/11/28 06:57:50;;;;;;;39.28;15.40;;;;;;;3.76;100.00;101242.53;5304440;33;227530;-83
2022/11/28 07:00:53;;;;;;;41.15;15.00;;;;;;;3.77;100.00;101248.69;5324526;33;33301;-83
2022/11/28 07:03:56;;;;;;;36.28;15.38;;;;;;;3.79;100.00;101252.97;5324665;33;33339;-83
2022/11/28 07:06:59;;;;;;;36.03;15.32;;;;;;;3.66;100.00;101251.28;5324674;33;33614;-83
2022/11/28 07:10:02;;;;;;;38.42;15.60;;;;;;;3.63;100.00;101250.56;5312727;33;32310;-83
2022/11/28 07:13:04;;;;;;;39.80;16.20;;;;;;;3.81;100.00;101240.37;5324193;33;34320;-83
2022/11/28 07:16:13;;;;;;;39.63;15.13;;;;;;;3.87;100.00;101239.09;5324342;33;34332;-83
2022/11/28 07:19:21;;;;;;;34.67;14.07;;;;;;;3.92;100.00;101231.62;5318984;33;34226;-87
2022/11/28 07:22:24;;;;;;;37.08;15.55;;;;;;;3.82;100.00;101236.75;5324493;33;34094;-83
2022/11/28 07:25:26;;;;;;;34.13;14.68;;;;;;;3.83;100.00;101240.25;5318997;33;33408;-83
2022/11/28 07:28:30;;;;;;;38.35;16.35;;;;;;;3.70;100.00;101236.81;5311425;33;33720;-83
2022/11/28 07:31:35;;;;;;;35.03;15.23;;;;;;;3.85;100.00;101236.53;5310421;33;34180;-83
2022/11/28 07:34:40;;;;;;;40.53;15.43;;;;;;;3.92;100.00;101238.72;5323979;33;34000;-83
2022/11/28 07:37:42;;;;;;;36.03;15.40;;;;;;;3.89;100.00;101230.97;5318176;33;31640;-83
2022/11/28 07:40:46;;;;;;;36.35;15.20;;;;;;;3.94;100.00;101242.12;5320166;33;34353;-83
2022/11/28 07:43:58;;;;;;;34.17;15.52;;;;;;;3.92;100.00;101236.94;5300864;33;33886;-83
2022/11/28 07:47:01;;;;;;;35.63;15.00;;;;;;;3.96;100.00;101219.75;5306625;33;34133;-83
2022/11/28 07:50:05;;;;;;;38.40;15.93;;;;;;;3.93;100.00;101224.47;5300189;33;32054;-81
2022/11/28 07:53:08;;;;;;;33.13;14.20;;;;;;;3.98;100.00;101216.97;5310340;33;33004;-82
2022/11/28 07:56:14;;;;;;;36.20;15.80;;;;;;;4.25;100.00;101212.22;5323752;33;33553;-82
2022/11/28 07:59:16;;;;;;;33.05;13.80;;;;;;;4.23;100.00;101214.16;5309214;33;32683;-81
2022/11/28 08:02:19;;;;;;;34.22;12.93;;;;;;;4.37;100.00;101212.28;5323440;33;33476;-82
2022/11/28 08:05:22;;;;;;;35.03;14.55;;;;;;;4.31;100.00;101214.44;5308682;33;32695;-83
2022/11/28 08:08:25;;;;;;;28.35;12.55;;;;;;;4.51;100.00;101215.56;5323109;33;33360;-82
2022/11/28 08:11:29;;;;;;;33.45;13.77;;;;;;;4.38;100.00;101216.63;5323195;33;33685;-82
2022/11/28 08:14:32;;;;;;;29.70;12.77;;;;;;;4.48;100.00;101207.81;5323669;33;34197;-83
2022/11/28 08:17:35;;;;;;;30.37;13.07;;;;;;;4.50;100.00;101213.00;5323026;33;33676;-82
2022/11/28 08:20:37;;;;;;;32.42;13.07;;;;;;;4.41;100.00;101211.06;5323691;33;33482;-82
2022/11/28 08:23:41;;;;;;;29.00;11.88;;;;;;;4.33;100.00;101206.31;5322977;33;33549;-82
2022/11/28 08:26:43;;;;;;;29.27;12.35;;;;;;;4.56;100.00;101201.88;5319556;33;33521;-83
2022/11/28 08:29:46;;;;;;;32.28;13.15;;;;;;;4.60;100.00;101211.34;5323177;33;34367;-82
2022/11/28 08:32:54;;;;;;;32.70;13.55;;;;;;;4.61;100.00;101214.84;5322838;33;34195;-83
2022/11/28 08:35:57;;;;;;;26.23;11.77;;;;;;;4.80;100.00;101220.47;5321499;33;34006;-82
2022/11/28 08:39:02;;;;;;;28.55;12.48;;;;;;;4.89;100.00;101222.41;5317988;33;32052;-82
2022/11/28 08:42:27;;;;;;;23.48;10.85;;;;;;;4.99;100.00;101231.38;5313884;33;34056;-82
2022/11/28 08:45:29;;;;;;;22.05;10.30;;;;;;;5.17;100.00;101233.56;5319302;33;35145;-82
2022/11/28 08:48:34;;;;;;;23.87;9.18;;;;;;;5.22;100.00;101232.22;5322288;33;33206;-82
2022/11/28 08:51:36;;;;;;;21.58;9.30;;;;;;;5.08;99.00;101228.97;5321396;33;33932;-83
2022/11/28 08:54:40;;;;;;;24.35;10.43;;;;;;;5.00;99.43;101230.44;5322148;33;32601;-82
2022/11/28 08:57:43;;;;;;;23.15;9.75;;;;;;;5.06;99.95;101229.09;5329827;33;34379;-82
2022/11/28 09:00:47;;;;;;;20.92;9.80;;;;;;;5.14;98.08;101223.97;5332531;33;33389;-85
2022/11/28 09:03:51;;;;;;;20.35;9.55;;;;;;;5.08;98.21;101228.97;5311729;33;32025;-86
2022/11/28 09:06:55;;;;;;;21.70;10.38;;;;;;;4.97;98.21;101227.13;5322423;33;31952;-86
2022/11/28 09:09:57;;;;;;;23.73;11.27;;;;;;;4.85;100.00;101220.09;5323627;33;34235;-84
2022/11/28 09:13:00;;;;;;;28.92;11.95;;;;;;;4.71;100.00;101219.38;5325438;33;33228;-83
2022/11/28 09:16:03;;;;;;;24.40;11.07;;;;;;;4.77;100.00;101215.38;5328085;33;33850;-86
2022/11/28 09:19:08;;;;;;;24.37;11.95;;;;;;;4.70;100.00;101222.97;5315756;33;31987;-86
2022/11/28 09:22:11;;;;;;;23.00;11.27;;;;;;;4.60;100.00;101215.84;5330990;33;33870;-85
2022/11/28 09:25:15;;;;;;;26.62;11.38;;;;;;;4.55;100.00;101216.19;5329117;33;34213;-86
2022/11/28 09:28:18;;;;;;;27.85;11.40;;;;;;;4.56;100.00;101204.53;5329982;33;34223;-86
2022/11/28 09:31:21;;;;;;;27.80;12.27;;;;;;;4.71;100.00;101208.69;5320203;33;31732;-86
2022/11/28 09:34:24;;;;;;;23.58;10.43;;;;;;;4.82;100.00;101204.34;5327801;33;34489;-85
2022/11/28 09:37:28;;;;;;;25.90;11.73;;;;;;;4.96;100.00;101207.59;5325832;33;34231;-85
2022/11/28 09:40:40;;;;;;;26.25;11.05;;;;;;;5.13;100.00;101203.59;5319581;33;33596;-85
2022/11/28 09:43:44;;;;;;;26.25;11.85;;;;;;;5.16;98.69;101199.84;5327242;33;33420;-85
2022/11/28 09:46:54;;;;;;;24.52;11.30;;;;;;;5.02;98.43;101192.94;5319197;33;34025;-85
2022/11/28 09:50:02;;;;;;;26.70;11.82;;;;;;;5.16;99.32;101187.34;5305092;33;32699;-85
2022/11/28 09:53:27;;;;;;;26.30;11.80;;;;;;;5.11;98.98;101186.84;5325614;33;33924;-85
2022/11/28 09:56:30;;;;;;;23.15;11.65;;;;;;;4.94;100.00;101182.00;5330217;33;33909;-85
2022/11/28 09:59:34;;;;;;;26.12;12.13;;;;;;;4.84;100.00;101178.38;5338920;33;33830;-85
2022/11/28 10:02:51;;;;;;;25.92;12.90;;;;;;;4.62;100.00;101173.88;5329114;33;33700;-85
2022/11/28 10:06:11;;;;;;;27.62;12.88;;;;;;;4.55;100.00;101171.69;5325439;33;33377;-85
2022/11/28 10:09:51;;;;;;;26.40;12.20;;;;;;;4.52;100.00;101171.09;5312196;33;33000;-83
2022/11/28 10:13:12;;;;;;;23.35;11.18;;;;;;;4.62;100.00;101169.41;5319862;33;33998;-83
2022/11/28 10:16:31;;;;;;;25.62;11.85;;;;;;;4.71;100.00;101163.34;5319178;33;33586;-84
2022/11/28 10:19:41;;;;;;;24.42;11.52;;;;;;;4.59;100.00;101164.28;5326656;33;33269;-84
2022/11/28 10:23:06;;;;;;;27.30;12.43;;;;;;;4.54;100.00;101161.16;5324188;33;34053;-83
2022/11/28 10:26:37;;;;;;;29.33;12.13;;;;;;;4.49;100.00;101155.31;5325272;33;33294;-84
2022/11/28 10:29:55;;;;;;;24.33;12.98;;;;;;;4.52;100.00;101161.25;5324970;33;33843;-84
2022/11/28 10:33:22;;;;;;;25.10;11.98;;;;;;;4.70;100.00;101148.31;5330114;33;34273;-83
2022/11/28 10:36:46;;;;;;;28.65;13.05;;;;;;;4.72;100.00;101142.88;5328697;33;33588;-87
2022/11/28 10:39:49;;;;;;;26.70;10.68;;;;;;;4.89;100.00;101145.03;5326134;33;33774;-84
2022/11/28 10:42:59;;;;;;;24.90;12.27;;;;;;;4.91;100.00;101139.56;5323644;33;33519;-85
2022/11/28 10:46:11;;;;;;;26.30;11.68;;;;;;;4.91;100.00;101139.56;5311469;33;32815;-84
2022/11/28 10:50:00;;;;;;;27.98;11.75;;;;;;;4.90;99.18;101133.38;5324731;33;33879;-84
2022/11/28 10:53:16;;;;;;;28.63;12.80;;;;;;;4.89;98.94;101126.38;5293098;33;34983;-84
2022/11/28 10:56:33;;;;;;;33.05;12.82;;;;;;;4.74;100.00;101123.09;5324368;33;34911;-84
2022/11/28 11:00:11;;;;;;;29.35;13.57;;;;;;;4.66;100.00;101122.84;5324551;33;33653;-83
2022/11/28 11:03:17;;;;;;;29.63;12.70;;;;;;;4.60;100.00;101122.50;5324163;33;34378;-84
2022/11/28 11:06:19;;;;;;;24.92;12.02;;;;;;;4.63;100.00;101116.94;5325857;33;33881;-87
2022/11/28 11:09:22;;;;;;;31.20;13.98;;;;;;;4.59;100.00;101116.28;5325854;33;33531;-88
2022/11/28 11:12:29;;;;;;;26.48;12.15;;;;;;;4.47;100.00;101115.44;5312001;33;32735;-88
2022/11/28 11:15:34;;;;;;;27.73;12.98;;;;;;;4.49;100.00;101112.66;5327941;33;33089;-85
2022/11/28 11:18:44;;;;;;;29.80;12.98;;;;;;;4.52;100.00;101104.44;5314587;33;32453;-84
2022/11/28 11:22:17;;;;;;;24.05;12.45;;;;;;;4.55;100.00;101107.69;5329750;33;33694;-84
2022/11/28 11:25:21;;;;;;;29.02;13.23;;;;;;;4.50;100.00;101109.03;5329129;33;33769;-85
2022/11/28 11:28:46;;;;;;;28.35;12.73;;;;;;;4.62;100.00;101116.09;5329821;33;33909;-85
2022/11/28 11:31:52;;;;;;;25.85;11.40;;;;;;;4.78;100.00;101105.88;5325040;33;32078;-83
2022/11/28 11:34:57;;;;;;;23.73;11.20;;;;;;;4.97;97.58;101102.59;5336918;33;34849;-84
2022/11/28 11:38:18;;;;;;;28.05;12.35;;;;;;;5.00;98.48;101104.13;5331330;33;33748;-84
2022/11/28 11:41:29;;;;;;;27.17;12.52;;;;;;;4.98;94.62;101103.44;5331209;33;33426;-84
2022/11/28 11:44:33;;;;;;;27.60;12.02;;;;;;;5.10;96.62;101099.75;5328465;33;33529;-82
2022/11/28 11:47:43;;;;;;;26.35;12.35;;;;;;;5.12;94.80;101100.50;5335417;33;33902;-83
2022/11/28 11:50:52;;;;;;;;;;;;;;;5.03;96.78;101105.72;5331974;33;34049;-83
2022/11/28 11:54:19;;;;;;;26.00;11.77;;;;;;;4.93;97.90;101102.94;5321288;33;34727;-83
2022/11/28 11:57:27;;;;;;;26.33;12.02;;;;;;;5.08;98.15;101101.69;5311498;33;34069;-84
2022/11/28 12:00:38;;;;;;;27.67;12.35;;;;;;;4.90;98.62;101097.84;5292533;33;33803;-84
2022/11/28 12:03:53;;;;;;;29.63;11.90;;;;;;;4.80;98.31;101091.56;5310131;33;34101;-85
2022/11/28 12:07:01;;;;;;;26.50;11.63;;;;;;;4.72;98.28;101093.03;5306124;33;33629;-84
2022/11/28 12:10:10;;;;;;;26.33;11.73;;;;;;;4.76;97.74;101086.47;5293084;33;31726;-84
2022/11/28 12:13:23;;;;;;;26.80;12.88;;;;;;;4.81;96.94;101093.25;5307532;33;33630;-84
2022/11/28 12:16:45;;;;;;;30.75;12.63;;;;;;;4.72;97.50;101079.69;5314450;33;34081;-85
2022/11/28 12:20:09;;;;;;;32.00;12.60;;;;;;;4.72;97.96;101078.84;5308475;33;33347;-84
2022/11/28 12:23:38;;;;;;;29.12;13.32;;;;;;;4.76;95.81;101074.94;5307219;33;33014;-84
2022/11/28 12:26:46;;;;;;;27.37;12.37;;;;;;;4.75;98.60;101078.59;5303335;33;34860;-85
2022/11/28 12:30:18;;;;;;;32.33;13.25;;;;;;;4.61;99.04;101077.03;5316603;33;33823;-84
2022/11/28 12:33:42;;;;;;;32.13;13.00;;;;;;;4.59;100.00;101072.78;5311977;33;33356;-84
2022/11/28 12:37:12;;;;;;;31.67;13.75;;;;;;;4.60;100.00;101078.00;5312463;33;33605;-84
2022/11/28 12:40:34;;;;;;;;;;;;;;;4.66;100.00;101074.84;5310592;33;32161;-85
2022/11/28 12:43:45;;;;;;;27.80;11.73;;;;;;;4.62;100.00;101067.19;5306530;33;33471;-84
2022/11/28 12:47:20;;;;;;;27.45;12.70;;;;;;;4.67;100.00;101065.03;5309044;33;33618;-85
2022/11/28 12:50:38;;;;;;;31.50;13.88;;;;;;;4.67;100.00;101065.03;5287536;33;32181;-84
2022/11/28 12:54:11;;;;;;;28.75;13.38;;;;;;;4.68;100.00;101064.03;5308881;33;33566;-84
2022/11/28 12:57:25;;;;;;;30.45;13.57;;;;;;;4.63;100.00;101066.25;5303946;33;33944;-85
2022/11/28 13:00:28;;;;;;;32.47;13.43;;;;;;;4.63;100.00;101063.59;5311993;33;31892;-85
2022/11/28 13:03:40;;;;;;;33.42;14.48;;;;;;;4.59;100.00;101057.63;5312006;33;32469;-85
2022/11/28 13:07:10;;;;;;;30.65;13.18;;;;;;;4.63;100.00;101059.09;5326951;33;32369;-84
2022/11/28 13:10:35;;;;;;;27.52;12.15;;;;;;;4.73;100.00;101049.38;5318365;33;32357;-84
2022/11/28 13:13:41;;;;;;;27.20;12.68;;;;;;;4.63;100.00;101048.44;5327277;33;33500;-84
2022/11/28 13:16:51;;;;;;;28.10;12.43;;;;;;;4.63;100.00;101044.91;5330263;33;33114;-83
2022/11/28 13:19:59;;;;;;;29.63;12.75;;;;;;;4.69;100.00;101039.09;5329227;33;34580;-83
2022/11/28 13:23:15;;;;;;;25.45;12.30;;;;;;;4.76;100.00;101043.78;5329343;33;33593;-84
2022/11/28 13:26:24;;;;;;;25.15;12.60;;;;;;;4.92;100.00;101045.22;5333793;33;33354;-84
2022/11/28 13:29:27;;;;;;;29.35;12.85;;;;;;;4.97;100.00;101048.34;5311275;33;32724;-84
2022/11/28 13:32:43;;;;;;;25.58;12.82;;;;;;;5.06;100.00;101044.97;5325199;33;34062;-84
2022/11/28 13:35:46;;;;;;;25.73;12.30;;;;;;;5.09;100.00;101039.38;5327958;33;34443;-88
2022/11/28 13:39:06;;;;;;;24.80;12.32;;;;;;;4.97;100.00;101035.88;5325428;33;34136;-88
2022/11/28 13:42:15;;;;;;;25.95;12.37;;;;;;;4.89;100.00;101037.47;5323466;33;33212;-84
2022/11/28 13:45:42;;;;;;;28.12;13.05;;;;;;;4.90;100.00;101031.16;5323791;33;34033;-84
2022/11/28 13:48:48;;;;;;;24.33;12.65;;;;;;;4.84;100.00;101037.84;5325305;33;33463;-84
2022/11/28 13:52:17;;;;;;;26.75;12.20;;;;;;;4.72;100.00;101036.16;5312772;33;32384;-84
2022/11/28 13:55:45;;;;;;;27.83;12.68;;;;;;;4.75;100.00;101039.44;5325027;33;34022;-84
2022/11/28 13:58:51;;;;;;;26.37;13.00;;;;;;;4.63;100.00;101034.25;5313452;33;33599;-83
2022/11/28 14:01:58;;;;;;;30.15;12.00;;;;;;;4.58;100.00;101036.44;5308982;33;32132;-84
2022/11/28 14:05:03;;;;;;;27.62;13.13;;;;;;;4.50;100.00;101042.34;5323043;33;33498;-84
2022/11/28 14:08:06;;;;;;;28.48;13.50;;;;;;;4.57;100.00;101034.75;5319484;33;33842;-84
2022/11/28 14:11:42;;;;;;;29.45;13.48;;;;;;;4.49;100.00;101030.00;5312460;33;33584;-84
2022/11/28 14:15:03;;;;;;;30.58;13.18;;;;;;;4.29;100.00;101035.09;5332201;33;34504;-88
2022/11/28 14:18:26;;;;;;;27.25;12.68;;;;;;;4.20;100.00;101030.50;5322484;33;32894;-84
2022/11/28 14:21:57;;;;;;;28.05;13.38;;;;;;;4.22;100.00;101028.56;5317655;33;34362;-83
2022/11/28 14:25:18;;;;;;;31.10;13.85;;;;;;;4.27;100.00;101029.06;5312392;33;32153;-84
2022/11/28 14:28:23;;;;;;;32.63;13.62;;;;;;;4.20;100.00;101027.84;5324805;33;33473;-85
2022/11/28 14:31:44;;;;;;;30.58;13.15;;;;;;;4.03;100.00;101022.97;5325802;33;33875;-84
2022/11/28 14:35:16;;;;;;;29.60;13.88;;;;;;;4.01;100.00;101022.28;5334242;33;33837;-85
2022/11/28 14:38:29;;;;;;;33.08;13.30;;;;;;;3.84;100.00;101026.22;5329044;33;34722;-85
2022/11/28 14:41:53;;;;;;;33.85;14.25;;;;;;;3.81;100.00;101018.47;5325894;33;34522;-87
2022/11/28 14:45:01;;;;;;;27.60;13.45;;;;;;;3.75;100.00;101013.63;5312367;33;32233;-84
2022/11/28 14:48:18;;;;;;;34.80;14.95;;;;;;;3.64;100.00;101017.09;5325154;33;34819;-86
2022/11/28 14:51:54;;;;;;;31.12;14.15;;;;;;;3.63;100.00;101016.25;5312843;33;32083;-85
2022/11/28 14:55:20;;;;;;;32.15;14.10;;;;;;;3.55;100.00;101018.66;5326600;33;33220;-84
2022/11/28 14:58:23;;;;;;;27.60;13.80;;;;;;;3.33;100.00;101013.25;5325996;33;33066;-87
2022/11/28 15:01:33;;;;;;;31.12;14.10;;;;;;;3.24;100.00;101017.44;5325214;33;33135;-84
2022/11/28 15:04:35;;;;;;;;;;;;;;;3.10;100.00;101015.84;5326851;33;33458;-85
2022/11/28 15:08:00;;;;;;;31.80;13.77;;;;;;;3.05;100.00;101011.81;5325193;33;33648;-85
2022/11/28 15:11:41;;;;;;;34.60;14.10;;;;;;;2.91;100.00;101011.00;5325334;33;34321;-84
2022/11/28 15:14:52;;;;;;;34.25;13.75;;;;;;;2.78;100.00;101020.88;5298744;33;33337;-85
2022/11/28 15:17:59;;;;;;;36.85;15.65;;;;;;;2.71;100.00;101017.78;5327536;33;33743;-85
2022/11/28 15:21:10;;;;;;;34.92;15.00;;;;;;;2.70;100.00;101020.56;5328670;33;33800;-85
2022/11/28 15:24:26;;;;;;;34.60;13.95;;;;;;;2.66;100.00;101033.25;5316274;33;32205;-85
2022/11/28 15:27:29;;;;;;;37.45;15.60;;;;;;;2.52;100.00;101043.16;5311793;33;31647;-85
2022/11/28 15:30:32;;;;;;;39.30;14.57;;;;;;;2.42;100.00;101037.63;5324609;33;33631;-85
2022/11/28 15:33:34;;;;;;;38.45;14.13;;;;;;;2.42;100.00;101040.28;5325014;33;33595;-85
2022/11/28 15:36:38;;;;;;;36.15;14.32;;;;;;;2.37;100.00;101037.09;5325492;33;34271;-85
2022/11/28 15:39:44;;;;;;;34.90;14.93;;;;;;;2.47;100.00;101035.50;5330737;33;34206;-85
2022/11/28 15:42:48;;;;;;;32.50;14.00;;;;;;;2.33;100.00;101038.28;5332183;33;33831;-85
2022/11/28 15:45:53;;;;;;;33.60;13.50;;;;;;;2.24;100.00;101030.00;5326345;33;33620;-85
2022/11/28 15:48:57;;;;;;;37.92;13.65;;;;;;;2.20;100.00;101036.50;5320634;33;33151;-84
2022/11/28 15:52:03;;;;;;;37.58;14.00;;;;;;;2.15;100.00;101043.09;5321413;33;33632;-85
2022/11/28 15:55:16;;;;;;;35.25;14.52;;;;;;;2.15;100.00;101045.75;5312229;33;32154;-85
2022/11/28 15:58:22;;;;;;;32.78;14.23;;;;;;;2.15;100.00;101051.06;5325580;33;34174;-85
2022/11/28 16:01:26;;;;;;;35.45;14.52;;;;;;;2.05;100.00;101045.56;5322842;33;34168;-85
2022/11/28 16:04:31;;;;;;;32.90;14.52;;;;;;;1.99;100.00;101049.50;5322967;33;33427;-85
2022/11/28 16:07:35;;;;;;;36.83;14.50;;;;;;;1.99;100.00;101052.12;5310737;33;31858;-85
2022/11/28 16:10:43;;;;;;;37.67;14.37;;;;;;;1.87;100.00;101058.28;5318051;33;32096;-85
2022/11/28 16:13:46;;;;;;;40.85;14.98;;;;;;;1.80;100.00;101052.53;5341293;33;33698;-85
2022/11/28 16:16:50;;;;;;;37.25;15.00;;;;;;;1.78;100.00;101038.53;5311825;33;31779;-85
2022/11/28 16:19:54;;;;;;;37.05;15.02;;;;;;;1.83;100.00;101054.13;5323504;33;35098;-85
2022/11/28 16:22:59;;;;;;;37.88;16.08;;;;;;;1.83;100.00;101058.59;5320567;33;33209;-85
2022/11/28 16:26:32;;;;;;;33.75;14.68;;;;;;;1.75;100.00;101057.31;5313032;33;31928;-85
2022/11/28 16:29:35;;;;;;;33.42;14.77;;;;;;;1.81;100.00;101058.69;5323617;33;33911;-85
2022/11/28 16:32:39;;;;;;;39.22;15.23;;;;;;;1.92;100.00;101055.31;5312123;33;31963;-85
2022/11/28 16:35:42;;;;;;;38.17;15.70;;;;;;;1.94;100.00;101051.59;5326659;33;33531;-85
2022/11/28 16:38:47;;;;;;;41.97;16.10;;;;;;;1.97;100.00;101062.00;5310365;33;32437;-85
2022/11/28 16:42:15;;;;;;;39.25;15.35;;;;;;;2.08;100.00;101050.66;5325386;33;33436;-85
2022/11/28 16:45:23;;;;;;;35.83;15.75;;;;;;;2.17;100.00;101055.31;5323642;33;33195;-85
2022/11/28 16:48:31;;;;;;;35.05;14.98;;;;;;;2.29;100.00;101056.28;5323905;33;34158;-84
2022/11/28 16:51:38;;;;;;;30.62;15.82;;;;;;;2.28;100.00;101059.88;5311312;33;32748;-83
2022/11/28 16:54:41;;;;;;;34.22;14.27;;;;;;;2.10;100.00;101053.19;5323810;33;33921;-85
